Time;durP1;ratioP1;P1;durP2;ratioP2;P2;SDS_P1;SDS_P2;PMS_P1;PMS_P2;Temp;Humidity;BMP_temperature;BMP_pressure;BME280_temperature;BME280_humidity;BME280_pressure;Samples;Min_cycle;Max_cycle;Signal;HPM_P1;HPM_P2
2023/04/07 00:02:45;;;;;;;;;;;;;;;;;;4998463;28;19936;-80
2023/04/07 00:05:32;;;;;;;;;;;;;;;;;;4997672;28;19925;-79
2023/04/07 00:08:18;;;;;;;;;;;;;;;;;;5002754;28;19918;-79
2023/04/07 00:11:05;;;;;;;;;;;;;;;;;;4998158;28;19922;-80
2023/04/07 00:13:51;;;;;;;;;;;;;;;;;;4993336;28;20631;-80
2023/04/07 00:16:38;;;;;;;;;;;;;;;;;;4991488;28;20675;-80
2023/04/07 00:19:24;;;;;;;;;;;;;;;;;;4993436;28;19925;-81
2023/04/07 00:22:11;;;;;;;;;;;;;;;;;;4991007;28;20405;-80
2023/04/07 00:24:57;;;;;;;;;;;;;;;;;;4998342;28;20277;-80
2023/04/07 00:27:46;;;;;;;;;;;;;;;;;;4995038;28;19913;-80
2023/04/07 00:30:33;;;;;;;;;;;;;;;;;;4996335;28;19929;-79
2023/04/07 00:33:20;;;;;;;;;;;;;;;;;;4995451;28;19924;-81
2023/04/07 00:36:06;;;;;;;;;;;;;;;;;;4995894;28;19921;-80
2023/04/07 00:38:52;;;;;;;;;;;;;;;;;;5005559;28;19913;-81
2023/04/07 00:41:39;;;;;;;;;;;;;;;;;;5001927;28;19930;-80
2023/04/07 00:44:25;;;;;;;;;;;;;;;;;;5001374;28;19920;-80
2023/04/07 00:47:12;;;;;;;;;;;;;;;;;;4979729;28;19925;-80
2023/04/07 00:49:59;;;;;;;;;;;;;;;;;;5000841;28;20238;-79
2023/04/07 00:52:45;;;;;;;;;;;;;;;;;;4995776;28;19987;-80
2023/04/07 00:55:32;;;;;;;;;;;;;;;;;;4999626;28;19928;-79
2023/04/07 00:58:18;;;;;;;;;;;;;;;;;;5003589;28;19940;-80
2023/04/07 01:01:05;;;;;;;;;;;;;;;;;;5004858;28;19921;-80
2023/04/07 01:03:51;;;;;;;;;;;;;;;;;;5003805;28;20302;-80
2023/04/07 01:06:38;;;;;;;;;;;;;;;;;;5004222;28;19928;-80
2023/04/07 01:09:24;;;;;;;;;;;;;;;;;;5001981;28;19917;-80
2023/04/07 01:12:11;;;;;;;;;;;;;;;;;;4996548;28;19921;-80
2023/04/07 01:14:57;;;;;;;;;;;;;;;;;;5001583;28;19925;-80
2023/04/07 01:17:44;;;;;;;;;;;;;;;;;;4995335;28;20290;-80
2023/04/07 01:20:31;;;;;;;;;;;;;;;;;;5002126;28;19925;-81
2023/04/07 01:23:17;;;;;;;;;;;;;;;;;;4997208;28;19936;-80
2023/04/07 01:26:04;;;;;;;;;;;;;;;;;;5004905;28;19937;-81
2023/04/07 01:28:50;;;;;;;;;;;;;;;;;;5006326;28;19933;-82
2023/04/07 01:31:37;;;;;;;;;;;;;;;;;;4994410;28;19925;-80
2023/04/07 01:34:23;;;;;;;;;;;;;;;;;;4995446;28;19992;-81
2023/04/07 01:37:10;;;;;;;;;;;;;;;;;;5000508;28;20392;-80
2023/04/07 01:39:56;;;;;;;;;;;;;;;;;;5013469;28;19918;-80
2023/04/07 01:42:43;;;;;;;;;;;;;;;;;;5003900;28;20386;-81
2023/04/07 01:45:29;;;;;;;;;;;;;;;;;;5004410;28;19924;-80
2023/04/07 01:48:16;;;;;;;;;;;;;;;;;;5001326;28;19922;-80
2023/04/07 01:51:02;;;;;;;;;;;;;;;;;;5000991;28;19925;-79
2023/04/07 01:53:49;;;;;;;;;;;;;;;;;;5000272;28;19940;-81
2023/04/07 01:56:35;;;;;;;;;;;;;;;;;;4995495;28;19922;-80
2023/04/07 01:59:22;;;;;;;;;;;;;;;;;;4990545;28;19921;-80
2023/04/07 02:02:08;;;;;;;;;;;;;;;;;;4987133;28;19925;-79
2023/04/07 02:04:55;;;;;;;;;;;;;;;;;;4994723;28;19924;-80
2023/04/07 02:07:42;;;;;;;;;;;;;;;;;;4998168;28;19926;-79
2023/04/07 02:10:28;;;;;;;;;;;;;;;;;;4996593;28;19918;-80
2023/04/07 02:13:15;;;;;;;;;;;;;;;;;;4998404;28;19932;-80
2023/04/07 02:16:01;;;;;;;;;;;;;;;;;;4991757;28;19930;-80
2023/04/07 02:18:48;;;;;;;;;;;;;;;;;;4998359;28;19940;-80
2023/04/07 02:21:35;;;;;;;;;;;;;;;;;;4996636;28;19928;-80
2023/04/07 02:24:21;;;;;;;;;;;;;;;;;;4988895;28;19929;-80
2023/04/07 02:27:08;;;;;;;;;;;;;;;;;;5000395;28;19917;-80
2023/04/07 02:29:54;;;;;;;;;;;;;;;;;;5002347;28;20548;-80
2023/04/07 02:32:41;;;;;;;;;;;;;;;;;;4998240;28;20328;-79
2023/04/07 02:35:27;;;;;;;;;;;;;;;;;;5002461;28;19917;-79
2023/04/07 02:38:14;;;;;;;;;;;;;;;;;;5003323;28;19944;-80
2023/04/07 02:41:00;;;;;;;;;;;;;;;;;;5003580;28;19924;-79
2023/04/07 02:43:47;;;;;;;;;;;;;;;;;;4984092;28;19935;-80
2023/04/07 02:46:33;;;;;;;;;;;;;;;;;;4998908;28;20293;-79
2023/04/07 02:49:20;;;;;;;;;;;;;;;;;;5000334;28;19917;-80
2023/04/07 02:52:07;;;;;;;;;;;;;;;;;;4994945;28;19927;-80
2023/04/07 02:54:53;;;;;;;;;;;;;;;;;;5000101;28;19914;-79
2023/04/07 02:57:40;;;;;;;;;;;;;;;;;;5001325;28;19928;-80
2023/04/07 03:00:26;;;;;;;;;;;;;;;;;;4995325;28;19917;-80
2023/04/07 03:03:13;;;;;;;;;;;;;;;;;;4996188;28;19933;-79
2023/04/07 03:05:59;;;;;;;;;;;;;;;;;;4997736;28;20470;-80
2023/04/07 03:08:46;;;;;;;;;;;;;;;;;;4990112;28;19918;-79
2023/04/07 03:11:32;;;;;;;;;;;;;;;;;;4998445;28;19917;-78
2023/04/07 03:14:19;;;;;;;;;;;;;;;;;;5004289;28;19918;-80
2023/04/07 03:17:05;;;;;;;;;;;;;;;;;;4972112;28;20505;-79
2023/04/07 03:19:52;;;;;;;;;;;;;;;;;;4979855;28;19918;-79
2023/04/07 03:22:38;;;;;;;;;;;;;;;;;;4973684;28;19937;-80
2023/04/07 03:25:26;;;;;;;;;;;;;;;;;;4980318;28;19918;-81
2023/04/07 03:28:12;;;;;;;;;;;;;;;;;;4979205;28;19921;-81
2023/04/07 03:30:59;;;;;;;;;;;;;;;;;;4977402;28;20521;-81
2023/04/07 03:33:45;;;;;;;;;;;;;;;;;;4979935;28;19933;-81
2023/04/07 03:36:32;;;;;;;;;;;;;;;;;;4971144;28;19922;-81
2023/04/07 03:39:19;;;;;;;;;;;;;;;;;;4984515;28;19920;-81
2023/04/07 03:42:05;;;;;;;;;;;;;;;;;;4974588;28;20526;-81
2023/04/07 03:44:52;;;;;;;;;;;;;;;;;;4978963;28;19926;-80
2023/04/07 03:47:38;;;;;;;;;;;;;;;;;;4971768;28;19924;-80
2023/04/07 03:50:25;;;;;;;;;;;;;;;;;;4977508;28;19918;-80
2023/04/07 03:53:15;;;;;;;;;;;;;;;;;;4980103;28;19921;-80
2023/04/07 03:56:02;;;;;;;;;;;;;;;;;;4979634;28;19924;-80
2023/04/07 03:58:48;;;;;;;;;;;;;;;;;;4979673;28;19921;-80
2023/04/07 04:01:35;;;;;;;;;;;;;;;;;;4978090;28;19918;-79
2023/04/07 04:04:23;;;;;;;;;;;;;;;;;;4977231;28;19925;-81
2023/04/07 04:07:09;;;;;;;;;;;;;;;;;;4971606;28;19928;-81
2023/04/07 04:09:56;;;;;;;;;;;;;;;;;;4978386;28;19956;-80
2023/04/07 04:12:42;;;;;;;;;;;;;;;;;;4976393;28;19932;-82
2023/04/07 04:15:29;;;;;;;;;;;;;;;;;;4991190;28;19930;-81
2023/04/07 04:18:15;;;;;;;;;;;;;;;;;;5001185;28;19929;-81
2023/04/07 04:21:02;;;;;;;;;;;;;;;;;;4999068;28;19918;-81
2023/04/07 04:23:48;;;;;;;;;;;;;;;;;;4995866;28;20468;-81
2023/04/07 04:26:35;;;;;;;;;;;;;;;;;;4998280;28;19924;-81
2023/04/07 04:29:21;;;;;;;;;;;;;;;;;;4998107;28;19918;-81
2023/04/07 04:32:07;;;;;;;;;;;;;;;;;;5000369;28;20473;-81
2023/04/07 04:34:54;;;;;;;;;;;;;;;;;;4993021;28;19917;-83
2023/04/07 04:37:40;;;;;;;;;;;;;;;;;;4996519;28;19925;-82
2023/04/07 04:40:27;;;;;;;;;;;;;;;;;;5000183;28;20396;-82
2023/04/07 04:43:13;;;;;;;;;;;;;;;;;;5001387;28;19930;-83
2023/04/07 04:46:00;;;;;;;;;;;;;;;;;;4999915;28;19921;-83
2023/04/07 04:48:46;;;;;;;;;;;;;;;;;;4998203;28;20025;-83
2023/04/07 04:51:33;;;;;;;;;;;;;;;;;;4995899;28;19922;-82
2023/04/07 04:54:19;;;;;;;;;;;;;;;;;;5005707;28;19925;-83
2023/04/07 04:57:06;;;;;;;;;;;;;;;;;;4993045;28;19918;-83
2023/04/07 04:59:52;;;;;;;;;;;;;;;;;;4998636;28;19917;-84
2023/04/07 05:02:39;;;;;;;;;;;;;;;;;;4989111;28;19925;-82
2023/04/07 05:05:25;;;;;;;;;;;;;;;;;;4999346;28;19918;-83
2023/04/07 05:08:12;;;;;;;;;;;;;;;;;;4993974;28;19917;-83
2023/04/07 05:10:58;;;;;;;;;;;;;;;;;;5001015;28;19924;-83
2023/04/07 05:13:45;;;;;;;;;;;;;;;;;;5002394;28;20577;-82
2023/04/07 05:16:31;;;;;;;;;;;;;;;;;;5001055;28;19936;-82
2023/04/07 05:19:18;;;;;;;;;;;;;;;;;;5004358;28;20291;-84
2023/04/07 05:22:04;;;;;;;;;;;;;;;;;;5003727;28;20344;-82
2023/04/07 05:24:51;;;;;;;;;;;;;;;;;;4998650;28;19922;-83
2023/04/07 05:27:37;;;;;;;;;;;;;;;;;;4997488;28;19921;-83
2023/04/07 05:30:24;;;;;;;;;;;;;;;;;;4999924;28;19922;-82
2023/04/07 05:33:10;;;;;;;;;;;;;;;;;;5001721;28;19929;-82
2023/04/07 05:35:57;;;;;;;;;;;;;;;;;;5000591;28;19918;-83
2023/04/07 05:38:43;;;;;;;;;;;;;;;;;;5000821;28;19925;-85
2023/04/07 05:41:30;;;;;;;;;;;;;;;;;;4992630;28;20385;-83
2023/04/07 05:44:16;;;;;;;;;;;;;;;;;;4997218;28;19936;-83
2023/04/07 05:47:07;;;;;;;;;;;;;;;;;;5000734;28;20385;-83
2023/04/07 05:49:54;;;;;;;;;;;;;;;;;;4994194;28;20482;-85
2023/04/07 05:52:40;;;;;;;;;;;;;;;;;;4998546;28;20490;-83
2023/04/07 05:55:27;;;;;;;;;;;;;;;;;;5003091;28;19925;-83
2023/04/07 05:58:13;;;;;;;;;;;;;;;;;;5003308;28;19925;-83
2023/04/07 06:01:00;;;;;;;;;;;;;;;;;;5003199;28;20805;-83
2023/04/07 06:03:46;;;;;;;;;;;;;;;;;;5000529;28;19976;-83
2023/04/07 06:06:33;;;;;;;;;;;;;;;;;;4996717;28;19937;-82
2023/04/07 06:09:19;;;;;;;;;;;;;;;;;;5000814;28;19987;-83
2023/04/07 06:12:06;;;;;;;;;;;;;;;;;;4999962;28;19997;-83
2023/04/07 06:14:52;;;;;;;;;;;;;;;;;;5003554;28;19918;-83
2023/04/07 06:17:39;;;;;;;;;;;;;;;;;;4997276;28;19923;-83
2023/04/07 06:20:29;;;;;;;;;;;;;;;;;;5001818;28;20637;-83
2023/04/07 06:23:15;;;;;;;;;;;;;;;;;;4999337;28;19926;-84
2023/04/07 06:26:02;;;;;;;;;;;;;;;;;;4996142;28;20285;-85
2023/04/07 06:28:48;;;;;;;;;;;;;;;;;;4997519;28;19933;-84
2023/04/07 06:31:35;;;;;;;;;;;;;;;;;;5000924;28;20468;-82
2023/04/07 06:34:21;;;;;;;;;;;;;;;;;;5002018;28;19925;-83
2023/04/07 06:37:07;;;;;;;;;;;;;;;;;;4998860;28;19921;-83
2023/04/07 06:39:54;;;;;;;;;;;;;;;;;;4999197;28;19921;-82
2023/04/07 06:42:40;;;;;;;;;;;;;;;;;;4999865;28;19952;-82
2023/04/07 06:45:27;;;;;;;;;;;;;;;;;;4999557;28;20396;-82
2023/04/07 06:48:13;;;;;;;;;;;;;;;;;;5001139;28;19927;-84
2023/04/07 06:51:00;;;;;;;;;;;;;;;;;;4996319;28;19928;-84
2023/04/07 06:53:47;;;;;;;;;;;;;;;;;;4999851;28;19918;-84
2023/04/07 06:56:34;;;;;;;;;;;;;;;;;;5002856;28;20357;-82
2023/04/07 06:59:20;;;;;;;;;;;;;;;;;;4999707;28;20382;-83
2023/04/07 07:02:07;;;;;;;;;;;;;;;;;;5001757;28;19921;-84
2023/04/07 07:04:54;;;;;;;;;;;;;;;;;;4996441;28;19929;-83
2023/04/07 07:07:40;;;;;;;;;;;;;;;;;;4999955;28;19940;-81
2023/04/07 07:10:27;;;;;;;;;;;;;;;;;;4993170;28;19933;-82
2023/04/07 07:13:13;;;;;;;;;;;;;;;;;;5002310;28;20011;-82
2023/04/07 07:16:00;;;;;;;;;;;;;;;;;;5004410;28;19930;-83
2023/04/07 07:18:46;;;;;;;;;;;;;;;;;;5002513;28;20317;-83
2023/04/07 07:21:32;;;;;;;;;;;;;;;;;;5001091;28;19933;-84
2023/04/07 07:24:19;;;;;;;;;;;;;;;;;;5000508;28;20570;-84
2023/04/07 07:27:05;;;;;;;;;;;;;;;;;;4988423;28;19918;-83
2023/04/07 07:29:52;;;;;;;;;;;;;;;;;;5002741;28;19940;-80
2023/04/07 07:32:39;;;;;;;;;;;;;;;;;;5002415;28;19917;-80
2023/04/07 07:35:25;;;;;;;;;;;;;;;;;;5004732;28;20401;-82
2023/04/07 07:38:12;;;;;;;;;;;;;;;;;;4998634;28;19928;-85
2023/04/07 07:40:58;;;;;;;;;;;;;;;;;;5002771;28;19924;-84
2023/04/07 07:43:45;;;;;;;;;;;;;;;;;;5001697;28;19929;-84
2023/04/07 07:46:31;;;;;;;;;;;;;;;;;;4982259;28;19936;-82
2023/04/07 07:49:18;;;;;;;;;;;;;;;;;;5004396;28;19921;-89
2023/04/07 07:52:04;;;;;;;;;;;;;;;;;;5000819;28;19913;-88
2023/04/07 07:54:51;;;;;;;;;;;;;;;;;;5010009;28;20337;-90
2023/04/07 07:57:37;;;;;;;;;;;;;;;;;;5012223;28;19913;-91
2023/04/07 08:00:24;;;;;;;;;;;;;;;;;;5011588;28;20491;-90
2023/04/07 08:03:10;;;;;;;;;;;;;;;;;;4998675;28;20405;-88
2023/04/07 08:05:57;;;;;;;;;;;;;;;;;;5003836;28;19926;-88
2023/04/07 08:08:43;;;;;;;;;;;;;;;;;;5001924;28;19932;-89
2023/04/07 08:11:30;;;;;;;;;;;;;;;;;;4998385;28;19918;-91
2023/04/07 08:14:16;;;;;;;;;;;;;;;;;;4995685;28;19932;-89
2023/04/07 08:17:03;;;;;;;;;;;;;;;;;;5005683;28;19941;-90
2023/04/07 08:19:49;;;;;;;;;;;;;;;;;;5004739;28;20420;-92
2023/04/07 08:22:36;;;;;;;;;;;;;;;;;;5003183;28;19933;-92
2023/04/07 08:25:22;;;;;;;;;;;;;;;;;;5015581;28;19926;-94
2023/04/07 08:28:09;;;;;;;;;;;;;;;;;;5014350;28;19913;-93
2023/04/07 08:30:55;;;;;;;;;;;;;;;;;;5011223;28;19924;-92
2023/04/07 08:33:42;;;;;;;;;;;;;;;;;;4998149;28;19924;-93
2023/04/07 08:36:28;;;;;;;;;;;;;;;;;;5007365;28;20373;-88
2023/04/07 08:39:15;;;;;;;;;;;;;;;;;;5009471;28;19928;-91
2023/04/07 08:42:01;;;;;;;;;;;;;;;;;;5009845;28;20365;-91
2023/04/07 08:44:48;;;;;;;;;;;;;;;;;;5010697;28;19925;-92
2023/04/07 08:47:34;;;;;;;;;;;;;;;;;;5009931;28;19918;-91
2023/04/07 08:50:21;;;;;;;;;;;;;;;;;;5011473;28;19931;-91
2023/04/07 08:53:07;;;;;;;;;;;;;;;;;;5006809;28;19921;-90
2023/04/07 08:55:54;;;;;;;;;;;;;;;;;;5011039;28;20241;-90
2023/04/07 08:58:40;;;;;;;;;;;;;;;;;;5011916;28;19929;-90
2023/04/07 09:01:27;;;;;;;;;;;;;;;;;;5003434;28;20372;-90
2023/04/07 09:04:16;;;;;;;;;;;;;;;;;;5012618;28;19929;-91
2023/04/07 09:07:02;;;;;;;;;;;;;;;;;;5004993;28;19936;-91
2023/04/07 09:09:49;;;;;;;;;;;;;;;;;;5010695;28;20612;-92
2023/04/07 09:12:36;;;;;;;;;;;;;;;;;;5007290;28;19925;-88
2023/04/07 09:15:22;;;;;;;;;;;;;;;;;;5005221;28;20444;-88
2023/04/07 09:18:09;;;;;;;;;;;;;;;;;;5001821;28;19971;-88
2023/04/07 09:20:56;;;;;;;;;;;;;;;;;;5002565;28;19928;-86
2023/04/07 09:23:43;;;;;;;;;;;;;;;;;;5001808;28;19930;-79
2023/04/07 09:26:30;;;;;;;;;;;;;;;;;;5000831;28;20289;-87
2023/04/07 09:29:17;;;;;;;;;;;;;;;;;;5004380;28;19925;-86
2023/04/07 09:32:04;;;;;;;;;;;;;;;;;;5004519;28;19940;-87
2023/04/07 09:34:51;;;;;;;;;;;;;;;;;;5001188;28;19921;-86
2023/04/07 09:37:37;;;;;;;;;;;;;;;;;;5000756;28;19948;-87
2023/04/07 09:40:24;;;;;;;;;;;;;;;;;;5002790;28;19925;-87
2023/04/07 09:43:10;;;;;;;;;;;;;;;;;;5002452;28;19931;-88
2023/04/07 09:45:57;;;;;;;;;;;;;;;;;;5002446;28;19914;-85
2023/04/07 09:48:43;;;;;;;;;;;;;;;;;;5003056;28;19925;-86
2023/04/07 09:51:30;;;;;;;;;;;;;;;;;;5001270;28;19929;-86
2023/04/07 09:54:16;;;;;;;;;;;;;;;;;;5001488;28;21119;-85
2023/04/07 09:57:03;;;;;;;;;;;;;;;;;;4995872;28;19926;-87
2023/04/07 09:59:50;;;;;;;;;;;;;;;;;;5001400;28;19928;-86
2023/04/07 10:02:36;;;;;;;;;;;;;;;;;;5010340;28;20607;-85
2023/04/07 10:05:23;;;;;;;;;;;;;;;;;;5009691;28;19917;-86
2023/04/07 10:08:09;;;;;;;;;;;;;;;;;;5009678;28;20503;-88
2023/04/07 10:10:56;;;;;;;;;;;;;;;;;;5008011;28;19917;-87
2023/04/07 10:13:42;;;;;;;;;;;;;;;;;;5004505;28;19918;-86
2023/04/07 10:16:29;;;;;;;;;;;;;;;;;;4998265;28;19934;-87
2023/04/07 10:19:15;;;;;;;;;;;;;;;;;;4999688;28;19918;-86
2023/04/07 10:22:02;;;;;;;;;;;;;;;;;;5000401;28;20407;-87
2023/04/07 10:24:49;;;;;;;;;;;;;;;;;;5002302;28;19929;-86
2023/04/07 10:27:35;;;;;;;;;;;;;;;;;;4999101;28;19933;-86
2023/04/07 10:30:22;;;;;;;;;;;;;;;;;;5001330;28;19948;-87
2023/04/07 10:33:08;;;;;;;;;;;;;;;;;;4998488;28;19928;-87
2023/04/07 10:35:55;;;;;;;;;;;;;;;;;;4998290;28;19925;-85
2023/04/07 10:38:42;;;;;;;;;;;;;;;;;;4998019;28;19930;-86
2023/04/07 10:41:28;;;;;;;;;;;;;;;;;;5001504;28;19922;-83
2023/04/07 10:44:15;;;;;;;;;;;;;;;;;;5001750;28;20407;-85
2023/04/07 10:47:02;;;;;;;;;;;;;;;;;;5001572;28;20520;-83
2023/04/07 10:49:48;;;;;;;;;;;;;;;;;;4999593;28;20029;-82
2023/04/07 10:52:35;;;;;;;;;;;;;;;;;;5000639;28;19972;-83
2023/04/07 10:55:21;;;;;;;;;;;;;;;;;;4971846;28;19928;-81
2023/04/07 10:58:08;;;;;;;;;;;;;;;;;;4999179;28;19921;-82
2023/04/07 11:00:55;;;;;;;;;;;;;;;;;;4999239;28;20153;-78
2023/04/07 11:03:41;;;;;;;;;;;;;;;;;;4998222;28;19932;-77
2023/04/07 11:06:31;;;;;;;;;;;;;;;;;;4976951;28;20608;-78
2023/04/07 11:12:22;;;;;;;;;;;;;;;;;;4992401;28;19921;-79
2023/04/07 11:15:09;;;;;;;;;;;;;;;;;;4999052;28;19933;-79
2023/04/07 11:17:55;;;;;;;;;;;;;;;;;;4998320;28;20412;-78
2023/04/07 11:20:42;;;;;;;;;;;;;;;;;;5000891;28;19928;-79
2023/04/07 11:23:28;;;;;;;;;;;;;;;;;;4985710;28;19930;-78
2023/04/07 11:26:15;;;;;;;;;;;;;;;;;;5000297;28;19924;-77
2023/04/07 11:29:03;;;;;;;;;;;;;;;;;;4996729;28;24101;-78
2023/04/07 11:31:50;;;;;;;;;;;;;;;;;;4999934;28;19925;-77
2023/04/07 11:34:36;;;;;;;;;;;;;;;;;;4996549;28;19918;-78
2023/04/07 11:37:23;;;;;;;;;;;;;;;;;;4999596;28;19922;-77
2023/04/07 11:40:10;;;;;;;;;;;;;;;;;;4997963;28;19926;-77
2023/04/07 11:42:56;;;;;;;;;;;;;;;;;;4999087;28;19929;-80
2023/04/07 11:45:43;;;;;;;;;;;;;;;;;;4998077;28;19968;-75
2023/04/07 11:48:29;;;;;;;;;;;;;;;;;;4999947;28;19928;-77
2023/04/07 11:51:16;;;;;;;;;;;;;;;;;;4998369;28;19928;-77
2023/04/07 11:54:03;;;;;;;;;;;;;;;;;;4997439;28;19921;-78
2023/04/07 11:56:54;;;;;;;;;;;;;;;;;;4996966;28;19924;-78
2023/04/07 11:59:40;;;;;;;;;;;;;;;;;;4996163;28;19924;-78
2023/04/07 12:02:27;;;;;;;;;;;;;;;;;;4997999;28;20262;-78
2023/04/07 12:05:13;;;;;;;;;;;;;;;;;;4996495;28;19925;-78
2023/04/07 12:08:00;;;;;;;;;;;;;;;;;;4998979;28;19921;-78
2023/04/07 12:10:47;;;;;;;;;;;;;;;;;;4996882;28;19948;-77
2023/04/07 12:13:33;;;;;;;;;;;;;;;;;;4995774;28;20294;-77
2023/04/07 12:16:20;;;;;;;;;;;;;;;;;;5002150;28;21131;-77
2023/04/07 12:19:07;;;;;;;;;;;;;;;;;;4996337;28;19926;-78
2023/04/07 12:21:53;;;;;;;;;;;;;;;;;;5001003;28;19928;-77
2023/04/07 12:24:40;;;;;;;;;;;;;;;;;;4999381;28;20574;-77
2023/04/07 12:27:26;;;;;;;;;;;;;;;;;;4999672;28;19925;-78
2023/04/07 12:30:13;;;;;;;;;;;;;;;;;;5003204;28;19921;-77
2023/04/07 12:32:59;;;;;;;;;;;;;;;;;;5001073;28;19928;-77
2023/04/07 12:35:46;;;;;;;;;;;;;;;;;;5000941;28;19918;-77
2023/04/07 12:38:32;;;;;;;;;;;;;;;;;;5003964;28;19917;-77
2023/04/07 12:41:19;;;;;;;;;;;;;;;;;;5004562;28;19917;-77
2023/04/07 12:44:05;;;;;;;;;;;;;;;;;;5006386;28;20516;-77
2023/04/07 12:46:52;;;;;;;;;;;;;;;;;;5004315;28;19928;-77
2023/04/07 12:49:38;;;;;;;;;;;;;;;;;;5004155;28;19921;-77
2023/04/07 12:52:25;;;;;;;;;;;;;;;;;;5000305;28;20635;-77
2023/04/07 12:55:13;;;;;;;;;;;;;;;;;;5002149;28;19921;-78
2023/04/07 12:57:59;;;;;;;;;;;;;;;;;;5000556;28;20435;-77
2023/04/07 13:00:46;;;;;;;;;;;;;;;;;;5000602;28;20005;-78
2023/04/07 13:03:33;;;;;;;;;;;;;;;;;;5000834;28;19940;-78
2023/04/07 13:06:19;;;;;;;;;;;;;;;;;;4998540;28;19924;-78
2023/04/07 13:09:05;;;;;;;;;;;;;;;;;;5003370;28;19948;-77
2023/04/07 13:11:52;;;;;;;;;;;;;;;;;;5000055;28;19918;-77
2023/04/07 13:14:38;;;;;;;;;;;;;;;;;;5000272;28;20301;-76
2023/04/07 13:17:25;;;;;;;;;;;;;;;;;;5002855;28;20527;-78
2023/04/07 13:20:12;;;;;;;;;;;;;;;;;;4995299;28;19917;-77
2023/04/07 13:22:58;;;;;;;;;;;;;;;;;;5001763;28;19926;-77
2023/04/07 13:25:45;;;;;;;;;;;;;;;;;;5002433;28;19921;-77
2023/04/07 13:28:32;;;;;;;;;;;;;;;;;;5000393;28;19922;-77
2023/04/07 13:31:20;;;;;;;;;;;;;;;;;;5001707;28;19961;-77
2023/04/07 13:34:07;;;;;;;;;;;;;;;;;;4999449;28;19913;-77
2023/04/07 13:36:54;;;;;;;;;;;;;;;;;;5001680;28;20073;-77
2023/04/07 13:39:40;;;;;;;;;;;;;;;;;;5001215;28;20382;-76
2023/04/07 13:42:27;;;;;;;;;;;;;;;;;;4999537;28;19918;-77
2023/04/07 13:45:13;;;;;;;;;;;;;;;;;;4999638;28;19925;-76
2023/04/07 13:48:00;;;;;;;;;;;;;;;;;;5002974;28;19924;-77
2023/04/07 13:50:46;;;;;;;;;;;;;;;;;;5001392;28;19921;-76
2023/04/07 13:53:33;;;;;;;;;;;;;;;;;;4999274;28;19918;-77
2023/04/07 13:56:21;;;;;;;;;;;;;;;;;;4999553;28;19928;-77
2023/04/07 13:59:07;;;;;;;;;;;;;;;;;;4997159;28;19921;-77
2023/04/07 14:01:53;;;;;;;;;;;;;;;;;;4998885;28;20524;-76
2023/04/07 14:04:40;;;;;;;;;;;;;;;;;;5000402;28;19940;-77
2023/04/07 14:07:26;;;;;;;;;;;;;;;;;;5001544;28;19932;-76
2023/04/07 14:10:13;;;;;;;;;;;;;;;;;;4999050;28;20305;-77
2023/04/07 14:13:00;;;;;;;;;;;;;;;;;;4998401;28;19928;-77
2023/04/07 14:15:47;;;;;;;;;;;;;;;;;;4999278;28;19949;-78
2023/04/07 14:18:34;;;;;;;;;;;;;;;;;;4998355;28;20404;-77
2023/04/07 14:21:20;;;;;;;;;;;;;;;;;;5000949;28;19925;-77
2023/04/07 14:24:06;;;;;;;;;;;;;;;;;;5000661;28;19952;-78
2023/04/07 14:26:53;;;;;;;;;;;;;;;;;;4997890;28;19925;-77
2023/04/07 14:29:40;;;;;;;;;;;;;;;;;;4999967;28;20294;-76
2023/04/07 14:32:28;;;;;;;;;;;;;;;;;;4999673;28;19928;-77
2023/04/07 14:35:14;;;;;;;;;;;;;;;;;;5000248;28;19929;-76
2023/04/07 14:38:01;;;;;;;;;;;;;;;;;;4998394;28;20386;-76
2023/04/07 14:40:48;;;;;;;;;;;;;;;;;;4999738;28;20301;-77
2023/04/07 14:43:35;;;;;;;;;;;;;;;;;;4999262;28;19937;-76
2023/04/07 14:46:21;;;;;;;;;;;;;;;;;;4997652;28;20380;-76
2023/04/07 14:49:08;;;;;;;;;;;;;;;;;;4998810;28;20477;-76
2023/04/07 14:51:54;;;;;;;;;;;;;;;;;;4998091;28;19922;-76
2023/04/07 14:54:41;;;;;;;;;;;;;;;;;;5000437;28;19924;-77
2023/04/07 14:57:27;;;;;;;;;;;;;;;;;;4999395;28;20498;-77
2023/04/07 15:00:14;;;;;;;;;;;;;;;;;;5001460;28;20361;-77
2023/04/07 15:03:00;;;;;;;;;;;;;;;;;;4999233;28;19925;-77
2023/04/07 15:05:47;;;;;;;;;;;;;;;;;;4999459;28;19926;-75
2023/04/07 15:08:33;;;;;;;;;;;;;;;;;;5000155;28;20670;-77
2023/04/07 15:11:20;;;;;;;;;;;;;;;;;;4999404;28;19939;-78
2023/04/07 15:14:07;;;;;;;;;;;;;;;;;;4993578;28;19917;-79
2023/04/07 15:16:53;;;;;;;;;;;;;;;;;;4998490;28;19929;-78
2023/04/07 15:19:40;;;;;;;;;;;;;;;;;;4996267;28;19924;-78
2023/04/07 15:22:26;;;;;;;;;;;;;;;;;;4997970;28;19928;-78
2023/04/07 15:25:12;;;;;;;;;;;;;;;;;;4999479;28;19956;-78
2023/04/07 15:27:59;;;;;;;;;;;;;;;;;;4998579;28;19941;-78
2023/04/07 15:30:46;;;;;;;;;;;;;;;;;;4994438;28;19929;-77
2023/04/07 15:33:32;;;;;;;;;;;;;;;;;;4997107;28;20378;-77
2023/04/07 15:36:19;;;;;;;;;;;;;;;;;;4986745;28;19925;-77
2023/04/07 15:39:05;;;;;;;;;;;;;;;;;;4997930;28;20617;-77
2023/04/07 15:41:52;;;;;;;;;;;;;;;;;;4997205;28;20574;-78
2023/04/07 15:44:38;;;;;;;;;;;;;;;;;;4997320;28;19929;-78
2023/04/07 15:47:25;;;;;;;;;;;;;;;;;;4999565;28;19926;-77
2023/04/07 15:50:11;;;;;;;;;;;;;;;;;;4999200;28;19917;-78
2023/04/07 15:52:58;;;;;;;;;;;;;;;;;;4993967;28;20872;-78
2023/04/07 15:55:44;;;;;;;;;;;;;;;;;;4992533;28;20004;-78
2023/04/07 15:58:31;;;;;;;;;;;;;;;;;;4996304;28;19926;-78
2023/04/07 16:01:18;;;;;;;;;;;;;;;;;;4999593;28;19970;-78
2023/04/07 16:04:04;;;;;;;;;;;;;;;;;;4995917;28;19937;-78
2023/04/07 16:06:51;;;;;;;;;;;;;;;;;;4994794;28;19945;-81
2023/04/07 16:09:37;;;;;;;;;;;;;;;;;;4994472;28;20305;-76
2023/04/07 16:12:24;;;;;;;;;;;;;;;;;;5002454;28;19918;-77
2023/04/07 16:15:10;;;;;;;;;;;;;;;;;;5001354;28;19941;-77
2023/04/07 16:17:57;;;;;;;;;;;;;;;;;;5003497;28;19964;-76
2023/04/07 16:20:43;;;;;;;;;;;;;;;;;;5001547;28;19928;-77
2023/04/07 16:23:30;;;;;;;;;;;;;;;;;;4998296;28;19940;-77
2023/04/07 16:26:16;;;;;;;;;;;;;;;;;;5003733;28;19926;-78
2023/04/07 16:29:02;;;;;;;;;;;;;;;;;;5000487;28;19922;-77
2023/04/07 16:31:49;;;;;;;;;;;;;;;;;;4999267;28;19925;-78
2023/04/07 16:34:36;;;;;;;;;;;;;;;;;;4997417;28;19926;-78
2023/04/07 16:37:22;;;;;;;;;;;;;;;;;;5003625;28;19928;-78
2023/04/07 16:40:09;;;;;;;;;;;;;;;;;;5001982;28;20603;-78
2023/04/07 16:42:55;;;;;;;;;;;;;;;;;;4998522;28;19922;-78
2023/04/07 16:45:42;;;;;;;;;;;;;;;;;;5000399;28;19975;-78
2023/04/07 16:48:28;;;;;;;;;;;;;;;;;;5002191;28;19917;-79
2023/04/07 16:51:15;;;;;;;;;;;;;;;;;;5002027;28;19921;-78
2023/04/07 16:54:01;;;;;;;;;;;;;;;;;;5000403;28;19921;-77
2023/04/07 16:56:48;;;;;;;;;;;;;;;;;;4999585;28;19937;-77
2023/04/07 16:59:34;;;;;;;;;;;;;;;;;;5003502;28;19926;-79
2023/04/07 17:02:21;;;;;;;;;;;;;;;;;;5001087;28;19921;-78
2023/04/07 17:05:07;;;;;;;;;;;;;;;;;;4999361;28;19929;-77
2023/04/07 17:07:54;;;;;;;;;;;;;;;;;;5002649;28;19922;-77
2023/04/07 17:10:40;;;;;;;;;;;;;;;;;;5001987;28;19932;-77
2023/04/07 17:13:27;;;;;;;;;;;;;;;;;;4999689;28;19948;-77
2023/04/07 17:16:13;;;;;;;;;;;;;;;;;;4998671;28;20406;-82
2023/04/07 17:19:00;;;;;;;;;;;;;;;;;;5002605;28;19967;-81
2023/04/07 17:21:46;;;;;;;;;;;;;;;;;;4995907;28;19925;-80
2023/04/07 17:24:33;;;;;;;;;;;;;;;;;;4999699;28;20419;-79
2023/04/07 17:27:19;;;;;;;;;;;;;;;;;;5002666;28;19932;-80
2023/04/07 17:30:07;;;;;;;;;;;;;;;;;;5000006;28;19928;-82
2023/04/07 17:32:53;;;;;;;;;;;;;;;;;;4998223;28;19922;-80
2023/04/07 17:35:40;;;;;;;;;;;;;;;;;;5000319;28;19933;-81
2023/04/07 17:38:26;;;;;;;;;;;;;;;;;;5000507;28;19925;-80
2023/04/07 17:41:13;;;;;;;;;;;;;;;;;;4999291;28;20654;-79
2023/04/07 17:44:00;;;;;;;;;;;;;;;;;;4998678;28;19944;-79
2023/04/07 17:46:47;;;;;;;;;;;;;;;;;;5000860;28;19932;-79
2023/04/07 17:49:33;;;;;;;;;;;;;;;;;;5003620;28;21164;-80
2023/04/07 17:52:20;;;;;;;;;;;;;;;;;;5001437;28;19917;-80
2023/04/07 17:55:07;;;;;;;;;;;;;;;;;;4999285;28;20008;-79
2023/04/07 17:57:59;;;;;;;;;;;;;;;;;;4994436;28;19917;-81
2023/04/07 18:00:46;;;;;;;;;;;;;;;;;;5001327;28;19921;-80
2023/04/07 18:03:32;;;;;;;;;;;;;;;;;;4992974;28;19922;-79
2023/04/07 18:06:19;;;;;;;;;;;;;;;;;;5000482;28;19924;-80
2023/04/07 18:09:06;;;;;;;;;;;;;;;;;;4998231;28;19925;-80
2023/04/07 18:11:53;;;;;;;;;;;;;;;;;;4999228;28;20401;-80
2023/04/07 18:14:39;;;;;;;;;;;;;;;;;;4998262;28;20437;-80
2023/04/07 18:17:26;;;;;;;;;;;;;;;;;;4998035;28;19929;-79
2023/04/07 18:20:12;;;;;;;;;;;;;;;;;;4998404;28;19917;-80
2023/04/07 18:22:59;;;;;;;;;;;;;;;;;;4997668;28;19918;-81
2023/04/07 18:25:45;;;;;;;;;;;;;;;;;;4997296;28;19933;-82
2023/04/07 18:28:32;;;;;;;;;;;;;;;;;;5001504;28;19925;-84
2023/04/07 18:31:19;;;;;;;;;;;;;;;;;;4998212;28;20425;-81
2023/04/07 18:34:05;;;;;;;;;;;;;;;;;;4997351;28;19929;-81
2023/04/07 18:36:52;;;;;;;;;;;;;;;;;;4998973;28;20323;-80
2023/04/07 18:39:39;;;;;;;;;;;;;;;;;;4999147;28;20694;-81
2023/04/07 18:42:25;;;;;;;;;;;;;;;;;;4998850;28;19918;-80
2023/04/07 18:45:12;;;;;;;;;;;;;;;;;;4998992;28;19926;-81
2023/04/07 18:47:58;;;;;;;;;;;;;;;;;;4997306;28;19927;-81
2023/04/07 18:50:45;;;;;;;;;;;;;;;;;;4997199;28;19924;-82
2023/04/07 18:53:31;;;;;;;;;;;;;;;;;;4997832;28;19945;-81
2023/04/07 18:56:20;;;;;;;;;;;;;;;;;;5000134;28;19917;-81
2023/04/07 18:59:07;;;;;;;;;;;;;;;;;;4997934;28;19927;-81
2023/04/07 19:01:53;;;;;;;;;;;;;;;;;;5000195;28;19925;-81